sensor_id;sensor_type;location;lat;lon;timestamp;P1;durP1;ratioP1;P2;durP2;ratioP2
36315;SDS011;22343;50.820;2.666;2023-08-06T00:00:58;5.28;;;2.33;;
36315;SDS011;22343;50.820;2.666;2023-08-06T00:03:44;3.78;;;2.08;;
36315;SDS011;22343;50.820;2.666;2023-08-06T00:06:30;7.55;;;2.40;;
36315;SDS011;22343;50.820;2.666;2023-08-06T00:09:15;3.27;;;1.83;;
36315;SDS011;22343;50.820;2.666;2023-08-06T00:12:00;3.70;;;2.30;;
36315;SDS011;22343;50.820;2.666;2023-08-06T00:14:45;2.87;;;2.20;;
36315;SDS011;22343;50.820;2.666;2023-08-06T00:17:30;4.70;;;2.85;;
36315;SDS011;22343;50.820;2.666;2023-08-06T00:20:15;4.78;;;2.88;;
36315;SDS011;22343;50.820;2.666;2023-08-06T00:23:00;7.73;;;3.23;;
36315;SDS011;22343;50.820;2.666;2023-08-06T00:25:46;8.43;;;3.80;;
36315;SDS011;22343;50.820;2.666;2023-08-06T00:28:31;5.78;;;3.55;;
36315;SDS011;22343;50.820;2.666;2023-08-06T00:31:16;10.03;;;4.00;;
36315;SDS011;22343;50.820;2.666;2023-08-06T00:34:02;9.82;;;4.05;;
36315;SDS011;22343;50.820;2.666;2023-08-06T00:36:47;7.57;;;2.78;;
36315;SDS011;22343;50.820;2.666;2023-08-06T00:39:33;5.20;;;3.03;;
36315;SDS011;22343;50.820;2.666;2023-08-06T00:42:18;6.20;;;3.33;;
36315;SDS011;22343;50.820;2.666;2023-08-06T00:45:09;5.67;;;2.87;;
36315;SDS011;22343;50.820;2.666;2023-08-06T00:47:54;4.33;;;2.80;;
36315;SDS011;22343;50.820;2.666;2023-08-06T00:50:39;8.07;;;3.23;;
36315;SDS011;22343;50.820;2.666;2023-08-06T00:53:25;3.47;;;2.70;;
36315;SDS011;22343;50.820;2.666;2023-08-06T00:56:11;5.57;;;2.97;;
36315;SDS011;22343;50.820;2.666;2023-08-06T00:58:57;6.13;;;2.90;;
36315;SDS011;22343;50.820;2.666;2023-08-06T01:01:43;7.10;;;3.00;;
36315;SDS011;22343;50.820;2.666;2023-08-06T01:04:29;5.53;;;2.90;;
36315;SDS011;22343;50.820;2.666;2023-08-06T01:07:33;5.87;;;2.80;;
36315;SDS011;22343;50.820;2.666;2023-08-06T01:17:31;7.10;;;3.87;;
36315;SDS011;22343;50.820;2.666;2023-08-06T01:20:17;9.13;;;3.77;;
36315;SDS011;22343;50.820;2.666;2023-08-06T01:23:02;8.37;;;3.53;;
36315;SDS011;22343;50.820;2.666;2023-08-06T01:29:12;7.07;;;3.80;;
36315;SDS011;22343;50.820;2.666;2023-08-06T01:32:01;8.60;;;3.70;;
36315;SDS011;22343;50.820;2.666;2023-08-06T01:34:47;7.47;;;3.53;;
36315;SDS011;22343;50.820;2.666;2023-08-06T01:37:33;8.70;;;3.40;;
36315;SDS011;22343;50.820;2.666;2023-08-06T01:40:19;7.03;;;3.37;;
36315;SDS011;22343;50.820;2.666;2023-08-06T01:43:04;6.83;;;3.63;;
36315;SDS011;22343;50.820;2.666;2023-08-06T01:45:50;7.77;;;3.70;;
36315;SDS011;22343;50.820;2.666;2023-08-06T01:48:36;6.20;;;3.33;;
36315;SDS011;22343;50.820;2.666;2023-08-06T01:51:22;6.97;;;3.50;;
36315;SDS011;22343;50.820;2.666;2023-08-06T01:54:07;8.83;;;3.63;;
36315;SDS011;22343;50.820;2.666;2023-08-06T01:56:52;6.90;;;3.90;;
36315;SDS011;22343;50.820;2.666;2023-08-06T01:59:38;9.43;;;4.10;;
36315;SDS011;22343;50.820;2.666;2023-08-06T02:02:24;10.17;;;4.20;;
36315;SDS011;22343;50.820;2.666;2023-08-06T02:05:09;9.13;;;3.80;;
36315;SDS011;22343;50.820;2.666;2023-08-06T02:07:55;7.37;;;4.40;;
36315;SDS011;22343;50.820;2.666;2023-08-06T02:10:40;12.20;;;4.60;;
36315;SDS011;22343;50.820;2.666;2023-08-06T02:13:27;10.13;;;4.50;;
36315;SDS011;22343;50.820;2.666;2023-08-06T02:16:11;9.57;;;4.50;;
36315;SDS011;22343;50.820;2.666;2023-08-06T02:18:57;7.97;;;4.90;;
36315;SDS011;22343;50.820;2.666;2023-08-06T02:21:42;10.30;;;4.97;;
36315;SDS011;22343;50.820;2.666;2023-08-06T02:24:28;10.90;;;5.60;;
36315;SDS011;22343;50.820;2.666;2023-08-06T02:27:12;9.80;;;5.20;;
36315;SDS011;22343;50.820;2.666;2023-08-06T02:29:58;12.67;;;5.00;;
36315;SDS011;22343;50.820;2.666;2023-08-06T02:32:42;10.67;;;5.27;;
36315;SDS011;22343;50.820;2.666;2023-08-06T02:35:27;10.70;;;5.00;;
36315;SDS011;22343;50.820;2.666;2023-08-06T02:38:12;9.47;;;4.93;;
36315;SDS011;22343;50.820;2.666;2023-08-06T02:40:58;11.13;;;5.20;;
36315;SDS011;22343;50.820;2.666;2023-08-06T02:43:44;10.63;;;4.80;;
36315;SDS011;22343;50.820;2.666;2023-08-06T02:46:30;8.60;;;4.90;;
36315;SDS011;22343;50.820;2.666;2023-08-06T02:49:15;9.17;;;4.97;;
36315;SDS011;22343;50.820;2.666;2023-08-06T02:52:00;7.33;;;4.50;;
36315;SDS011;22343;50.820;2.666;2023-08-06T02:54:45;9.23;;;4.43;;
36315;SDS011;22343;50.820;2.666;2023-08-06T02:57:31;10.80;;;5.03;;
36315;SDS011;22343;50.820;2.666;2023-08-06T03:00:17;9.43;;;4.87;;
36315;SDS011;22343;50.820;2.666;2023-08-06T03:03:03;7.80;;;4.20;;
36315;SDS011;22343;50.820;2.666;2023-08-06T03:05:52;10.40;;;4.20;;
36315;SDS011;22343;50.820;2.666;2023-08-06T03:08:39;8.07;;;4.03;;
36315;SDS011;22343;50.820;2.666;2023-08-06T03:11:24;7.80;;;4.10;;
36315;SDS011;22343;50.820;2.666;2023-08-06T03:14:09;7.90;;;3.77;;
36315;SDS011;22343;50.820;2.666;2023-08-06T03:16:54;7.77;;;4.50;;
36315;SDS011;22343;50.820;2.666;2023-08-06T03:19:40;8.53;;;3.80;;
36315;SDS011;22343;50.820;2.666;2023-08-06T03:22:25;7.70;;;3.90;;
36315;SDS011;22343;50.820;2.666;2023-08-06T03:25:13;6.83;;;3.83;;
36315;SDS011;22343;50.820;2.666;2023-08-06T03:27:59;9.97;;;4.27;;
36315;SDS011;22343;50.820;2.666;2023-08-06T03:30:45;7.63;;;3.60;;
36315;SDS011;22343;50.820;2.666;2023-08-06T03:33:31;5.67;;;3.47;;
36315;SDS011;22343;50.820;2.666;2023-08-06T03:36:16;8.40;;;3.70;;
36315;SDS011;22343;50.820;2.666;2023-08-06T03:39:01;7.30;;;3.40;;
36315;SDS011;22343;50.820;2.666;2023-08-06T03:41:47;8.07;;;3.80;;
36315;SDS011;22343;50.820;2.666;2023-08-06T03:44:32;9.73;;;3.40;;
36315;SDS011;22343;50.820;2.666;2023-08-06T03:47:18;7.50;;;3.17;;
36315;SDS011;22343;50.820;2.666;2023-08-06T03:50:03;6.37;;;3.50;;
36315;SDS011;22343;50.820;2.666;2023-08-06T03:52:49;8.53;;;3.40;;
36315;SDS011;22343;50.820;2.666;2023-08-06T03:55:35;6.53;;;3.30;;
36315;SDS011;22343;50.820;2.666;2023-08-06T03:58:20;8.63;;;3.70;;
36315;SDS011;22343;50.820;2.666;2023-08-06T04:01:04;7.67;;;3.17;;
36315;SDS011;22343;50.820;2.666;2023-08-06T04:03:50;7.73;;;3.20;;
36315;SDS011;22343;50.820;2.666;2023-08-06T04:06:35;9.80;;;3.43;;
36315;SDS011;22343;50.820;2.666;2023-08-06T04:09:21;8.80;;;4.00;;
36315;SDS011;22343;50.820;2.666;2023-08-06T04:12:05;9.97;;;3.93;;
36315;SDS011;22343;50.820;2.666;2023-08-06T04:14:52;11.07;;;4.37;;
36315;SDS011;22343;50.820;2.666;2023-08-06T04:17:37;12.73;;;4.90;;
36315;SDS011;22343;50.820;2.666;2023-08-06T04:20:22;9.77;;;4.60;;
36315;SDS011;22343;50.820;2.666;2023-08-06T04:23:08;9.13;;;4.40;;
36315;SDS011;22343;50.820;2.666;2023-08-06T04:25:57;10.37;;;4.40;;
36315;SDS011;22343;50.820;2.666;2023-08-06T04:28:43;9.27;;;4.10;;
36315;SDS011;22343;50.820;2.666;2023-08-06T04:31:28;7.23;;;4.10;;
36315;SDS011;22343;50.820;2.666;2023-08-06T04:34:13;9.50;;;4.07;;
36315;SDS011;22343;50.820;2.666;2023-08-06T04:36:59;7.53;;;3.63;;
36315;SDS011;22343;50.820;2.666;2023-08-06T04:39:45;8.07;;;3.93;;
36315;SDS011;22343;50.820;2.666;2023-08-06T04:42:31;11.37;;;4.57;;
36315;SDS011;22343;50.820;2.666;2023-08-06T04:45:17;9.27;;;4.23;;
36315;SDS011;22343;50.820;2.666;2023-08-06T04:48:02;7.90;;;4.37;;
36315;SDS011;22343;50.820;2.666;2023-08-06T04:50:48;7.60;;;4.10;;
36315;SDS011;22343;50.820;2.666;2023-08-06T04:53:35;8.67;;;4.93;;
36315;SDS011;22343;50.820;2.666;2023-08-06T04:56:20;10.23;;;4.20;;
36315;SDS011;22343;50.820;2.666;2023-08-06T04:59:07;8.33;;;3.67;;
36315;SDS011;22343;50.820;2.666;2023-08-06T05:01:53;10.03;;;4.17;;
36315;SDS011;22343;50.820;2.666;2023-08-06T05:04:38;9.20;;;3.80;;
36315;SDS011;22343;50.820;2.666;2023-08-06T05:07:24;8.60;;;3.80;;
36315;SDS011;22343;50.820;2.666;2023-08-06T05:10:10;7.57;;;3.40;;
36315;SDS011;22343;50.820;2.666;2023-08-06T05:12:56;7.70;;;3.60;;
36315;SDS011;22343;50.820;2.666;2023-08-06T05:15:42;7.13;;;3.60;;
36315;SDS011;22343;50.820;2.666;2023-08-06T05:18:27;8.50;;;3.80;;
36315;SDS011;22343;50.820;2.666;2023-08-06T05:21:11;10.20;;;4.33;;
36315;SDS011;22343;50.820;2.666;2023-08-06T05:23:57;8.97;;;4.67;;
36315;SDS011;22343;50.820;2.666;2023-08-06T05:26:42;7.23;;;3.73;;
36315;SDS011;22343;50.820;2.666;2023-08-06T05:29:31;6.97;;;3.83;;
36315;SDS011;22343;50.820;2.666;2023-08-06T05:32:16;9.80;;;4.33;;
36315;SDS011;22343;50.820;2.666;2023-08-06T05:35:02;9.43;;;3.87;;
36315;SDS011;22343;50.820;2.666;2023-08-06T05:37:48;8.60;;;4.33;;
36315;SDS011;22343;50.820;2.666;2023-08-06T05:40:34;8.10;;;4.07;;
36315;SDS011;22343;50.820;2.666;2023-08-06T05:43:20;6.30;;;3.37;;
36315;SDS011;22343;50.820;2.666;2023-08-06T05:46:05;6.00;;;3.60;;
36315;SDS011;22343;50.820;2.666;2023-08-06T05:48:51;7.67;;;4.17;;
36315;SDS011;22343;50.820;2.666;2023-08-06T05:51:36;7.03;;;3.93;;
36315;SDS011;22343;50.820;2.666;2023-08-06T05:54:22;9.90;;;4.33;;
36315;SDS011;22343;50.820;2.666;2023-08-06T05:57:08;7.90;;;4.20;;
36315;SDS011;22343;50.820;2.666;2023-08-06T05:59:54;8.47;;;4.37;;
36315;SDS011;22343;50.820;2.666;2023-08-06T06:02:40;7.33;;;4.00;;
36315;SDS011;22343;50.820;2.666;2023-08-06T06:05:25;8.87;;;4.00;;
36315;SDS011;22343;50.820;2.666;2023-08-06T06:08:11;10.47;;;4.07;;
36315;SDS011;22343;50.820;2.666;2023-08-06T06:10:56;8.50;;;4.10;;
36315;SDS011;22343;50.820;2.666;2023-08-06T06:13:42;9.17;;;3.87;;
36315;SDS011;22343;50.820;2.666;2023-08-06T06:16:28;7.20;;;4.00;;
36315;SDS011;22343;50.820;2.666;2023-08-06T06:19:14;7.30;;;3.87;;
36315;SDS011;22343;50.820;2.666;2023-08-06T06:21:59;6.70;;;3.50;;
36315;SDS011;22343;50.820;2.666;2023-08-06T06:24:45;7.80;;;3.53;;
36315;SDS011;22343;50.820;2.666;2023-08-06T06:27:31;8.93;;;3.97;;
36315;SDS011;22343;50.820;2.666;2023-08-06T06:30:17;7.70;;;3.80;;
36315;SDS011;22343;50.820;2.666;2023-08-06T06:33:03;6.80;;;3.60;;
36315;SDS011;22343;50.820;2.666;2023-08-06T06:35:48;8.67;;;3.57;;
36315;SDS011;22343;50.820;2.666;2023-08-06T06:38:34;7.43;;;3.50;;
36315;SDS011;22343;50.820;2.666;2023-08-06T06:41:19;6.17;;;3.63;;
36315;SDS011;22343;50.820;2.666;2023-08-06T06:44:05;8.70;;;3.40;;
36315;SDS011;22343;50.820;2.666;2023-08-06T06:46:50;8.03;;;3.40;;
36315;SDS011;22343;50.820;2.666;2023-08-06T06:49:36;5.13;;;3.17;;
36315;SDS011;22343;50.820;2.666;2023-08-06T06:52:21;4.47;;;2.90;;
36315;SDS011;22343;50.820;2.666;2023-08-06T06:55:08;4.97;;;2.97;;
36315;SDS011;22343;50.820;2.666;2023-08-06T06:57:54;5.07;;;3.10;;
36315;SDS011;22343;50.820;2.666;2023-08-06T07:00:40;5.83;;;2.97;;
36315;SDS011;22343;50.820;2.666;2023-08-06T07:03:25;4.63;;;3.00;;
36315;SDS011;22343;50.820;2.666;2023-08-06T07:06:11;6.80;;;3.20;;
36315;SDS011;22343;50.820;2.666;2023-08-06T07:08:57;7.87;;;3.23;;
36315;SDS011;22343;50.820;2.666;2023-08-06T07:11:43;6.27;;;2.90;;
36315;SDS011;22343;50.820;2.666;2023-08-06T07:14:29;4.30;;;2.73;;
36315;SDS011;22343;50.820;2.666;2023-08-06T07:17:13;7.47;;;3.13;;
36315;SDS011;22343;50.820;2.666;2023-08-06T07:19:59;7.77;;;3.80;;
36315;SDS011;22343;50.820;2.666;2023-08-06T07:22:45;6.10;;;3.07;;
36315;SDS011;22343;50.820;2.666;2023-08-06T07:25:30;3.90;;;2.70;;
36315;SDS011;22343;50.820;2.666;2023-08-06T07:28:16;5.23;;;3.00;;
36315;SDS011;22343;50.820;2.666;2023-08-06T07:31:02;5.77;;;3.17;;
36315;SDS011;22343;50.820;2.666;2023-08-06T07:33:48;7.87;;;3.07;;
36315;SDS011;22343;50.820;2.666;2023-08-06T07:36:34;6.70;;;3.03;;
36315;SDS011;22343;50.820;2.666;2023-08-06T07:39:19;6.93;;;3.07;;
36315;SDS011;22343;50.820;2.666;2023-08-06T07:42:05;6.27;;;3.00;;
36315;SDS011;22343;50.820;2.666;2023-08-06T07:44:56;7.77;;;3.70;;
36315;SDS011;22343;50.820;2.666;2023-08-06T07:47:42;6.03;;;3.40;;
36315;SDS011;22343;50.820;2.666;2023-08-06T07:50:28;8.00;;;3.17;;
36315;SDS011;22343;50.820;2.666;2023-08-06T07:53:13;7.07;;;2.93;;
36315;SDS011;22343;50.820;2.666;2023-08-06T07:55:59;7.50;;;3.30;;
36315;SDS011;22343;50.820;2.666;2023-08-06T07:58:47;7.63;;;3.50;;
36315;SDS011;22343;50.820;2.666;2023-08-06T08:01:32;7.47;;;3.00;;
36315;SDS011;22343;50.820;2.666;2023-08-06T08:04:18;9.53;;;3.40;;
36315;SDS011;22343;50.820;2.666;2023-08-06T08:07:04;5.63;;;3.13;;
36315;SDS011;22343;50.820;2.666;2023-08-06T08:09:51;8.17;;;3.40;;
36315;SDS011;22343;50.820;2.666;2023-08-06T08:12:37;8.33;;;3.60;;
36315;SDS011;22343;50.820;2.666;2023-08-06T08:15:22;4.97;;;3.07;;
36315;SDS011;22343;50.820;2.666;2023-08-06T08:18:08;4.60;;;2.90;;
36315;SDS011;22343;50.820;2.666;2023-08-06T08:20:54;5.67;;;2.97;;
36315;SDS011;22343;50.820;2.666;2023-08-06T08:23:40;5.97;;;2.93;;
36315;SDS011;22343;50.820;2.666;2023-08-06T08:26:27;4.87;;;2.90;;
36315;SDS011;22343;50.820;2.666;2023-08-06T08:29:12;6.03;;;3.10;;
36315;SDS011;22343;50.820;2.666;2023-08-06T08:31:57;7.63;;;3.17;;
36315;SDS011;22343;50.820;2.666;2023-08-06T08:34:43;4.43;;;3.10;;
36315;SDS011;22343;50.820;2.666;2023-08-06T08:37:30;5.70;;;3.43;;
36315;SDS011;22343;50.820;2.666;2023-08-06T08:40:15;4.67;;;3.10;;
36315;SDS011;22343;50.820;2.666;2023-08-06T08:42:59;6.07;;;3.37;;
36315;SDS011;22343;50.820;2.666;2023-08-06T08:45:45;8.03;;;3.50;;
36315;SDS011;22343;50.820;2.666;2023-08-06T08:48:35;6.10;;;3.10;;
36315;SDS011;22343;50.820;2.666;2023-08-06T08:51:21;5.87;;;2.80;;
36315;SDS011;22343;50.820;2.666;2023-08-06T08:54:07;6.63;;;3.00;;
36315;SDS011;22343;50.820;2.666;2023-08-06T08:56:53;5.27;;;2.77;;
36315;SDS011;22343;50.820;2.666;2023-08-06T08:59:39;5.83;;;2.93;;
36315;SDS011;22343;50.820;2.666;2023-08-06T09:02:23;6.30;;;3.20;;
36315;SDS011;22343;50.820;2.666;2023-08-06T09:05:09;5.63;;;3.00;;
36315;SDS011;22343;50.820;2.666;2023-08-06T09:07:55;5.50;;;3.00;;
36315;SDS011;22343;50.820;2.666;2023-08-06T09:10:48;6.47;;;3.00;;
36315;SDS011;22343;50.820;2.666;2023-08-06T09:13:37;5.87;;;3.37;;
36315;SDS011;22343;50.820;2.666;2023-08-06T09:16:22;6.93;;;3.23;;
36315;SDS011;22343;50.820;2.666;2023-08-06T09:19:12;5.15;;;2.90;;
36315;SDS011;22343;50.820;2.666;2023-08-06T09:21:59;7.70;;;3.03;;
36315;SDS011;22343;50.820;2.666;2023-08-06T09:24:44;7.50;;;3.50;;
36315;SDS011;22343;50.820;2.666;2023-08-06T09:27:29;6.77;;;3.10;;
36315;SDS011;22343;50.820;2.666;2023-08-06T09:30:28;5.90;;;3.53;;
36315;SDS011;22343;50.820;2.666;2023-08-06T09:33:18;5.67;;;3.43;;
36315;SDS011;22343;50.820;2.666;2023-08-06T09:36:09;5.40;;;2.80;;
36315;SDS011;22343;50.820;2.666;2023-08-06T09:38:56;8.63;;;3.10;;
36315;SDS011;22343;50.820;2.666;2023-08-06T09:41:42;7.32;;;2.97;;
36315;SDS011;22343;50.820;2.666;2023-08-06T09:44:29;6.07;;;3.20;;
36315;SDS011;22343;50.820;2.666;2023-08-06T09:47:15;8.03;;;2.80;;
36315;SDS011;22343;50.820;2.666;2023-08-06T09:50:01;5.67;;;3.23;;
36315;SDS011;22343;50.820;2.666;2023-08-06T09:52:50;6.47;;;3.10;;
36315;SDS011;22343;50.820;2.666;2023-08-06T09:55:36;7.13;;;3.00;;
36315;SDS011;22343;50.820;2.666;2023-08-06T09:58:22;5.57;;;2.90;;
36315;SDS011;22343;50.820;2.666;2023-08-06T10:01:09;6.23;;;3.03;;
36315;SDS011;22343;50.820;2.666;2023-08-06T10:03:55;5.07;;;3.10;;
36315;SDS011;22343;50.820;2.666;2023-08-06T10:06:43;5.37;;;3.00;;
36315;SDS011;22343;50.820;2.666;2023-08-06T10:09:32;4.20;;;3.15;;
36315;SDS011;22343;50.820;2.666;2023-08-06T10:12:18;6.28;;;2.92;;
36315;SDS011;22343;50.820;2.666;2023-08-06T10:15:04;5.05;;;2.85;;
36315;SDS011;22343;50.820;2.666;2023-08-06T10:17:56;7.28;;;2.83;;
36315;SDS011;22343;50.820;2.666;2023-08-06T10:20:42;5.80;;;2.78;;
36315;SDS011;22343;50.820;2.666;2023-08-06T10:23:34;5.68;;;3.20;;
36315;SDS011;22343;50.820;2.666;2023-08-06T10:26:19;6.25;;;2.80;;
36315;SDS011;22343;50.820;2.666;2023-08-06T10:32:22;4.78;;;2.65;;
36315;SDS011;22343;50.820;2.666;2023-08-06T10:38:34;5.20;;;2.70;;
36315;SDS011;22343;50.820;2.666;2023-08-06T10:44:26;6.05;;;2.90;;
36315;SDS011;22343;50.820;2.666;2023-08-06T10:47:27;4.65;;;2.35;;
36315;SDS011;22343;50.820;2.666;2023-08-06T10:50:15;4.93;;;2.50;;
36315;SDS011;22343;50.820;2.666;2023-08-06T10:53:06;4.70;;;2.47;;
36315;SDS011;22343;50.820;2.666;2023-08-06T10:55:51;4.55;;;2.53;;
36315;SDS011;22343;50.820;2.666;2023-08-06T10:58:37;4.15;;;2.50;;
36315;SDS011;22343;50.820;2.666;2023-08-06T11:01:22;7.30;;;2.97;;
36315;SDS011;22343;50.820;2.666;2023-08-06T11:04:08;5.20;;;2.72;;
36315;SDS011;22343;50.820;2.666;2023-08-06T11:07:00;4.13;;;2.50;;
36315;SDS011;22343;50.820;2.666;2023-08-06T11:09:49;4.88;;;2.40;;
36315;SDS011;22343;50.820;2.666;2023-08-06T11:12:35;6.85;;;2.88;;
36315;SDS011;22343;50.820;2.666;2023-08-06T11:15:20;4.63;;;2.60;;
36315;SDS011;22343;50.820;2.666;2023-08-06T11:18:07;6.63;;;2.60;;
36315;SDS011;22343;50.820;2.666;2023-08-06T11:20:52;5.43;;;2.55;;
36315;SDS011;22343;50.820;2.666;2023-08-06T11:23:38;5.40;;;2.95;;
36315;SDS011;22343;50.820;2.666;2023-08-06T11:26:24;4.65;;;2.70;;
36315;SDS011;22343;50.820;2.666;2023-08-06T11:29:10;7.30;;;2.50;;
36315;SDS011;22343;50.820;2.666;2023-08-06T11:32:03;5.80;;;2.72;;
36315;SDS011;22343;50.820;2.666;2023-08-06T11:34:49;5.68;;;2.53;;
36315;SDS011;22343;50.820;2.666;2023-08-06T11:37:34;4.32;;;2.40;;
36315;SDS011;22343;50.820;2.666;2023-08-06T11:40:21;3.33;;;2.28;;
36315;SDS011;22343;50.820;2.666;2023-08-06T11:43:07;5.80;;;2.35;;
36315;SDS011;22343;50.820;2.666;2023-08-06T11:45:54;4.95;;;2.42;;
36315;SDS011;22343;50.820;2.666;2023-08-06T11:48:58;6.07;;;2.42;;
36315;SDS011;22343;50.820;2.666;2023-08-06T11:51:44;5.40;;;2.20;;
36315;SDS011;22343;50.820;2.666;2023-08-06T11:54:32;3.35;;;2.33;;
36315;SDS011;22343;50.820;2.666;2023-08-06T11:57:22;4.57;;;2.50;;
36315;SDS011;22343;50.820;2.666;2023-08-06T12:03:11;4.00;;;2.20;;
36315;SDS011;22343;50.820;2.666;2023-08-06T12:05:56;4.65;;;2.35;;
36315;SDS011;22343;50.820;2.666;2023-08-06T12:08:42;4.18;;;2.10;;
36315;SDS011;22343;50.820;2.666;2023-08-06T12:11:26;5.70;;;2.38;;
36315;SDS011;22343;50.820;2.666;2023-08-06T12:14:12;3.65;;;2.17;;
36315;SDS011;22343;50.820;2.666;2023-08-06T12:16:57;3.22;;;2.10;;
36315;SDS011;22343;50.820;2.666;2023-08-06T12:19:44;4.63;;;2.17;;
36315;SDS011;22343;50.820;2.666;2023-08-06T12:22:29;3.97;;;2.20;;
36315;SDS011;22343;50.820;2.666;2023-08-06T12:25:19;3.85;;;1.90;;
36315;SDS011;22343;50.820;2.666;2023-08-06T12:28:04;3.90;;;2.00;;
36315;SDS011;22343;50.820;2.666;2023-08-06T12:30:52;6.85;;;2.10;;
36315;SDS011;22343;50.820;2.666;2023-08-06T12:33:40;4.45;;;2.40;;
36315;SDS011;22343;50.820;2.666;2023-08-06T12:36:26;4.10;;;2.20;;
36315;SDS011;22343;50.820;2.666;2023-08-06T12:39:11;5.43;;;2.28;;
36315;SDS011;22343;50.820;2.666;2023-08-06T12:41:57;4.47;;;2.00;;
36315;SDS011;22343;50.820;2.666;2023-08-06T12:44:42;5.07;;;2.20;;
36315;SDS011;22343;50.820;2.666;2023-08-06T12:47:27;3.58;;;2.17;;
36315;SDS011;22343;50.820;2.666;2023-08-06T12:50:12;4.20;;;2.28;;
36315;SDS011;22343;50.820;2.666;2023-08-06T12:52:58;4.05;;;2.15;;
36315;SDS011;22343;50.820;2.666;2023-08-06T12:55:44;3.20;;;2.10;;
36315;SDS011;22343;50.820;2.666;2023-08-06T12:58:30;2.53;;;1.70;;
36315;SDS011;22343;50.820;2.666;2023-08-06T13:01:15;2.83;;;2.00;;
36315;SDS011;22343;50.820;2.666;2023-08-06T13:04:01;7.10;;;2.10;;
36315;SDS011;22343;50.820;2.666;2023-08-06T13:06:48;4.57;;;2.28;;
36315;SDS011;22343;50.820;2.666;2023-08-06T13:09:32;4.20;;;2.53;;
36315;SDS011;22343;50.820;2.666;2023-08-06T13:12:18;3.20;;;1.80;;
36315;SDS011;22343;50.820;2.666;2023-08-06T13:15:07;3.03;;;2.05;;
36315;SDS011;22343;50.820;2.666;2023-08-06T13:17:53;3.60;;;2.00;;
36315;SDS011;22343;50.820;2.666;2023-08-06T13:20:39;3.45;;;2.08;;
36315;SDS011;22343;50.820;2.666;2023-08-06T13:23:26;2.97;;;1.88;;
36315;SDS011;22343;50.820;2.666;2023-08-06T13:26:12;3.25;;;2.00;;
36315;SDS011;22343;50.820;2.666;2023-08-06T13:28:58;3.88;;;2.00;;
36315;SDS011;22343;50.820;2.666;2023-08-06T13:31:42;2.65;;;2.03;;
36315;SDS011;22343;50.820;2.666;2023-08-06T13:34:28;2.47;;;1.77;;
36315;SDS011;22343;50.820;2.666;2023-08-06T13:37:14;3.00;;;1.80;;
36315;SDS011;22343;50.820;2.666;2023-08-06T13:39:59;2.20;;;1.70;;
36315;SDS011;22343;50.820;2.666;2023-08-06T13:42:44;3.75;;;2.10;;
36315;SDS011;22343;50.820;2.666;2023-08-06T13:45:30;5.13;;;1.80;;
36315;SDS011;22343;50.820;2.666;2023-08-06T13:48:15;4.20;;;2.00;;
36315;SDS011;22343;50.820;2.666;2023-08-06T13:51:00;2.28;;;1.85;;
36315;SDS011;22343;50.820;2.666;2023-08-06T13:53:44;4.18;;;1.90;;
36315;SDS011;22343;50.820;2.666;2023-08-06T13:56:32;3.35;;;2.08;;
36315;SDS011;22343;50.820;2.666;2023-08-06T13:59:18;3.50;;;1.90;;
36315;SDS011;22343;50.820;2.666;2023-08-06T14:02:05;5.10;;;1.95;;
36315;SDS011;22343;50.820;2.666;2023-08-06T14:04:51;4.38;;;1.98;;
36315;SDS011;22343;50.820;2.666;2023-08-06T14:07:38;1.77;;;1.60;;
36315;SDS011;22343;50.820;2.666;2023-08-06T14:10:24;3.15;;;1.88;;
36315;SDS011;22343;50.820;2.666;2023-08-06T14:13:09;3.63;;;1.98;;
36315;SDS011;22343;50.820;2.666;2023-08-06T14:15:54;2.80;;;1.92;;
36315;SDS011;22343;50.820;2.666;2023-08-06T14:18:40;2.60;;;2.20;;
36315;SDS011;22343;50.820;2.666;2023-08-06T14:21:26;4.70;;;2.00;;
36315;SDS011;22343;50.820;2.666;2023-08-06T14:24:12;4.13;;;2.20;;
36315;SDS011;22343;50.820;2.666;2023-08-06T14:26:58;2.63;;;1.92;;
36315;SDS011;22343;50.820;2.666;2023-08-06T14:29:44;2.15;;;1.90;;
36315;SDS011;22343;50.820;2.666;2023-08-06T14:32:28;3.20;;;1.90;;
36315;SDS011;22343;50.820;2.666;2023-08-06T14:35:15;2.78;;;1.80;;
36315;SDS011;22343;50.820;2.666;2023-08-06T14:38:01;3.20;;;1.90;;
36315;SDS011;22343;50.820;2.666;2023-08-06T14:40:47;2.67;;;2.20;;
36315;SDS011;22343;50.820;2.666;2023-08-06T14:43:32;3.88;;;2.03;;
36315;SDS011;22343;50.820;2.666;2023-08-06T14:46:18;5.32;;;2.00;;
36315;SDS011;22343;50.820;2.666;2023-08-06T14:49:03;5.10;;;2.22;;
36315;SDS011;22343;50.820;2.666;2023-08-06T14:51:50;3.40;;;1.98;;
36315;SDS011;22343;50.820;2.666;2023-08-06T14:54:34;2.88;;;2.00;;
36315;SDS011;22343;50.820;2.666;2023-08-06T14:57:20;2.85;;;2.10;;
36315;SDS011;22343;50.820;2.666;2023-08-06T15:00:07;3.38;;;1.80;;
36315;SDS011;22343;50.820;2.666;2023-08-06T15:02:55;3.40;;;1.90;;
36315;SDS011;22343;50.820;2.666;2023-08-06T15:05:46;4.43;;;1.88;;
36315;SDS011;22343;50.820;2.666;2023-08-06T15:08:32;3.05;;;2.00;;
36315;SDS011;22343;50.820;2.666;2023-08-06T15:11:18;2.20;;;2.00;;
36315;SDS011;22343;50.820;2.666;2023-08-06T15:14:03;4.15;;;1.90;;
36315;SDS011;22343;50.820;2.666;2023-08-06T15:16:52;3.63;;;1.85;;
36315;SDS011;22343;50.820;2.666;2023-08-06T15:19:41;5.00;;;2.20;;
36315;SDS011;22343;50.820;2.666;2023-08-06T15:22:25;3.60;;;2.00;;
36315;SDS011;22343;50.820;2.666;2023-08-06T15:25:11;4.53;;;2.20;;
36315;SDS011;22343;50.820;2.666;2023-08-06T15:27:57;2.17;;;1.70;;
36315;SDS011;22343;50.820;2.666;2023-08-06T15:30:48;3.42;;;1.73;;
36315;SDS011;22343;50.820;2.666;2023-08-06T15:33:34;2.90;;;1.90;;
36315;SDS011;22343;50.820;2.666;2023-08-06T15:36:20;3.90;;;1.88;;
36315;SDS011;22343;50.820;2.666;2023-08-06T15:39:06;2.20;;;1.70;;
36315;SDS011;22343;50.820;2.666;2023-08-06T15:41:52;2.63;;;1.90;;
36315;SDS011;22343;50.820;2.666;2023-08-06T15:44:36;2.85;;;2.10;;
36315;SDS011;22343;50.820;2.666;2023-08-06T15:47:22;5.80;;;2.20;;
36315;SDS011;22343;50.820;2.666;2023-08-06T15:50:08;3.65;;;1.90;;
36315;SDS011;22343;50.820;2.666;2023-08-06T15:52:54;2.78;;;2.05;;
36315;SDS011;22343;50.820;2.666;2023-08-06T15:55:40;2.45;;;1.98;;
36315;SDS011;22343;50.820;2.666;2023-08-06T15:58:25;3.17;;;2.13;;
36315;SDS011;22343;50.820;2.666;2023-08-06T16:01:12;4.15;;;2.10;;
36315;SDS011;22343;50.820;2.666;2023-08-06T16:03:59;3.65;;;2.10;;
36315;SDS011;22343;50.820;2.666;2023-08-06T16:06:45;5.93;;;2.20;;
36315;SDS011;22343;50.820;2.666;2023-08-06T16:09:29;4.20;;;2.10;;
36315;SDS011;22343;50.820;2.666;2023-08-06T16:12:15;4.47;;;2.00;;
36315;SDS011;22343;50.820;2.666;2023-08-06T16:15:02;3.60;;;2.20;;
36315;SDS011;22343;50.820;2.666;2023-08-06T16:17:48;5.97;;;2.45;;
36315;SDS011;22343;50.820;2.666;2023-08-06T16:20:34;3.60;;;2.13;;
36315;SDS011;22343;50.820;2.666;2023-08-06T16:23:19;3.25;;;2.03;;
36315;SDS011;22343;50.820;2.666;2023-08-06T16:26:05;3.58;;;2.00;;
36315;SDS011;22343;50.820;2.666;2023-08-06T16:28:51;2.70;;;2.13;;
36315;SDS011;22343;50.820;2.666;2023-08-06T16:31:37;4.18;;;2.42;;
36315;SDS011;22343;50.820;2.666;2023-08-06T16:34:22;2.85;;;1.90;;
36315;SDS011;22343;50.820;2.666;2023-08-06T16:37:08;3.05;;;2.17;;
36315;SDS011;22343;50.820;2.666;2023-08-06T16:39:55;3.47;;;2.20;;
36315;SDS011;22343;50.820;2.666;2023-08-06T16:42:42;3.22;;;1.90;;
36315;SDS011;22343;50.820;2.666;2023-08-06T16:45:29;4.15;;;2.13;;
36315;SDS011;22343;50.820;2.666;2023-08-06T16:48:22;4.00;;;2.33;;
36315;SDS011;22343;50.820;2.666;2023-08-06T16:51:15;3.15;;;2.17;;
36315;SDS011;22343;50.820;2.666;2023-08-06T16:54:00;2.65;;;1.80;;
36315;SDS011;22343;50.820;2.666;2023-08-06T16:56:46;2.92;;;2.05;;
36315;SDS011;22343;50.820;2.666;2023-08-06T16:59:31;4.97;;;2.20;;
36315;SDS011;22343;50.820;2.666;2023-08-06T17:02:16;2.97;;;1.90;;
36315;SDS011;22343;50.820;2.666;2023-08-06T17:05:01;5.57;;;2.17;;